createdAt,value
2018-06-19T00:02:14.577Z,17.91
2018-06-19T00:04:43.524Z,17.91
2018-06-19T00:07:12.430Z,17.85
2018-06-19T00:09:41.210Z,17.81
2018-06-19T00:12:09.901Z,17.85
2018-06-19T00:14:38.818Z,17.86
2018-06-19T00:17:07.773Z,17.83
2018-06-19T00:19:39.590Z,17.82
2018-06-19T00:22:08.476Z,17.75
2018-06-19T00:24:37.496Z,17.75
2018-06-19T00:27:06.661Z,17.69
2018-06-19T00:29:35.685Z,17.66
2018-06-19T00:32:04.578Z,17.60
2018-06-19T00:34:34.241Z,17.53
2018-06-19T00:37:03.362Z,17.53
2018-06-19T00:39:32.145Z,17.47
2018-06-19T00:42:01.259Z,17.45
2018-06-19T00:44:31.759Z,17.41
2018-06-19T00:47:00.682Z,17.41
2018-06-19T00:49:29.564Z,17.40
2018-06-19T00:51:58.354Z,17.30
2018-06-19T00:54:27.294Z,17.27
2018-06-19T00:56:58.563Z,17.21
2018-06-19T00:59:27.833Z,17.21
2018-06-19T01:01:58.421Z,17.09
2018-06-19T01:04:27.313Z,17.01
2018-06-19T01:06:56.032Z,16.97
2018-06-19T01:09:24.904Z,16.90
2018-06-19T01:11:53.781Z,16.93
2018-06-19T01:14:22.702Z,16.85
2018-06-19T01:16:51.605Z,16.82
2018-06-19T01:19:20.551Z,16.83
2018-06-19T01:21:49.553Z,16.78
2018-06-19T01:24:18.269Z,16.79
2018-06-19T01:26:47.264Z,16.79
2018-06-19T01:29:16.429Z,16.75
2018-06-19T01:31:45.326Z,16.75
2018-06-19T01:34:14.058Z,16.65
2018-06-19T01:36:42.981Z,16.69
2018-06-19T01:39:12.150Z,16.68
2018-06-19T01:41:41.070Z,16.73
2018-06-19T01:44:09.826Z,16.73
2018-06-19T01:46:38.719Z,16.72
2018-06-19T01:49:07.743Z,16.72
2018-06-19T01:51:36.753Z,16.72
2018-06-19T01:54:05.634Z,16.70
2018-06-19T01:56:34.681Z,16.65
2018-06-19T01:59:03.721Z,16.63
2018-06-19T02:01:32.416Z,16.59
2018-06-19T02:04:01.263Z,16.58
2018-06-19T02:06:30.180Z,16.47
2018-06-19T02:08:59.164Z,16.50
2018-06-19T02:11:28.063Z,16.58
2018-06-19T02:13:57.138Z,16.60
2018-06-19T02:16:25.990Z,16.64
2018-06-19T02:18:54.819Z,16.67
2018-06-19T02:21:23.511Z,16.74
2018-06-19T02:23:52.653Z,16.80
2018-06-19T02:26:21.520Z,16.76
2018-06-19T02:28:50.434Z,16.80
2018-06-19T02:31:19.326Z,16.86
2018-06-19T02:33:48.422Z,16.77
2018-06-19T02:36:17.227Z,16.85
2018-06-19T02:38:45.939Z,16.86
2018-06-19T02:41:14.682Z,16.92
2018-06-19T02:43:43.526Z,16.87
2018-06-19T02:46:12.619Z,16.87
2018-06-19T02:48:41.435Z,16.92
2018-06-19T02:51:10.293Z,16.99
2018-06-19T02:53:39.279Z,16.90
2018-06-19T02:56:08.093Z,16.82
2018-06-19T02:58:36.957Z,16.79
2018-06-19T03:01:05.824Z,16.79
2018-06-19T03:03:35.294Z,16.81
2018-06-19T03:06:04.436Z,16.81
2018-06-19T03:08:33.441Z,16.80
2018-06-19T03:11:02.533Z,16.78
2018-06-19T03:13:31.252Z,16.81
2018-06-19T03:16:00.209Z,16.75
2018-06-19T03:18:28.974Z,16.81
2018-06-19T03:20:58.351Z,16.89
2018-06-19T03:23:27.174Z,16.90
2018-06-19T03:25:55.956Z,16.92
2018-06-19T03:28:24.759Z,16.93
2018-06-19T03:30:53.632Z,16.98
2018-06-19T03:33:22.396Z,17.01
2018-06-19T03:35:51.255Z,16.91
2018-06-19T03:38:20.405Z,16.86
2018-06-19T03:40:49.594Z,16.89
2018-06-19T03:43:18.757Z,16.92
2018-06-19T03:45:47.740Z,16.89
2018-06-19T03:48:16.692Z,17.01
2018-06-19T03:50:45.464Z,17.06
2018-06-19T03:53:14.329Z,17.06
2018-06-19T03:55:43.229Z,17.02
2018-06-19T03:58:11.996Z,17.10
2018-06-19T04:00:40.810Z,16.95
2018-06-19T04:03:09.962Z,17.10
2018-06-19T04:05:38.866Z,17.22
2018-06-19T04:08:07.899Z,17.34
2018-06-19T04:10:37.390Z,17.26
2018-06-19T04:13:06.390Z,17.29
2018-06-19T04:15:35.246Z,17.33
2018-06-19T04:18:04.160Z,17.42
2018-06-19T04:20:32.961Z,17.45
2018-06-19T04:23:01.831Z,17.41
2018-06-19T04:25:30.797Z,17.56
2018-06-19T04:27:59.732Z,17.56
2018-06-19T04:30:28.813Z,17.64
2018-06-19T04:32:57.923Z,17.59
2018-06-19T04:35:26.863Z,17.51
2018-06-19T04:37:55.669Z,17.50
2018-06-19T04:40:24.411Z,17.46
2018-06-19T04:42:53.465Z,17.58
2018-06-19T04:45:22.231Z,17.57
2018-06-19T04:47:50.960Z,17.64
2018-06-19T04:50:19.748Z,17.64
2018-06-19T04:52:48.748Z,17.70
2018-06-19T04:55:17.597Z,17.77
2018-06-19T04:57:46.463Z,17.82
2018-06-19T05:00:15.699Z,17.82
2018-06-19T05:02:44.407Z,17.96
2018-06-19T05:05:13.437Z,18.04
2018-06-19T05:07:42.306Z,18.06
2018-06-19T05:10:11.073Z,18.12
2018-06-19T05:12:40.080Z,18.33
2018-06-19T05:15:09.172Z,18.40
2018-06-19T05:17:38.302Z,18.42
2018-06-19T05:20:07.263Z,18.47
2018-06-19T05:22:36.406Z,18.47
2018-06-19T05:25:05.254Z,18.60
2018-06-19T05:27:34.346Z,18.61
2018-06-19T05:30:03.212Z,18.79
2018-06-19T05:32:32.164Z,18.83
2018-06-19T05:35:01.218Z,18.96
2018-06-19T05:37:29.973Z,18.95
2018-06-19T05:39:58.849Z,19.13
2018-06-19T05:42:27.591Z,19.30
2018-06-19T05:44:56.348Z,19.39
2018-06-19T05:47:25.159Z,19.18
2018-06-19T05:49:54.575Z,19.25
2018-06-19T05:52:23.947Z,19.43
2018-06-19T05:54:52.765Z,19.34
2018-06-19T05:57:21.868Z,19.08
2018-06-19T05:59:50.808Z,19.01
2018-06-19T06:02:19.902Z,19.11
2018-06-19T06:04:49.004Z,18.79
2018-06-19T06:07:19.505Z,18.84
2018-06-19T06:09:48.408Z,18.85
2018-06-19T06:12:17.382Z,18.91
2018-06-19T06:14:46.226Z,18.99
2018-06-19T06:17:15.108Z,19.12
2018-06-19T06:19:44.022Z,19.15
2018-06-19T06:22:12.914Z,19.25
2018-06-19T06:24:41.858Z,19.33
2018-06-19T06:27:10.763Z,19.22
2018-06-19T06:29:39.932Z,19.27
2018-06-19T06:32:08.949Z,19.48
2018-06-19T06:34:37.798Z,19.55
2018-06-19T06:37:06.923Z,19.74
2018-06-19T06:39:35.726Z,19.80
2018-06-19T06:42:05.106Z,19.76
2018-06-19T06:44:34.172Z,19.71
2018-06-19T06:47:02.987Z,19.80
2018-06-19T06:49:32.092Z,20.08
2018-06-19T06:52:00.856Z,20.23
2018-06-19T06:54:30.397Z,20.50
2018-06-19T06:57:00.994Z,20.45
2018-06-19T06:59:30.643Z,20.53
2018-06-19T07:01:59.445Z,20.71
2018-06-19T07:04:28.801Z,20.75
2018-06-19T07:06:58.125Z,20.67
2018-06-19T07:09:26.998Z,20.62
2018-06-19T07:11:55.948Z,20.56
2018-06-19T07:14:24.777Z,20.64
2018-06-19T07:16:53.738Z,20.90
2018-06-19T07:19:22.544Z,20.89
2018-06-19T07:21:51.646Z,20.88
2018-06-19T07:24:20.794Z,21.41
2018-06-19T07:26:49.903Z,21.35
2018-06-19T07:29:18.754Z,21.18
2018-06-19T07:31:48.087Z,21.19
2018-06-19T07:34:17.273Z,21.23
2018-06-19T07:36:46.608Z,21.18
2018-06-19T07:39:15.886Z,21.29
2018-06-19T07:41:44.673Z,21.30
2018-06-19T07:44:13.848Z,20.98
2018-06-19T07:46:42.685Z,21.03
2018-06-19T07:49:11.761Z,21.00
2018-06-19T07:51:40.718Z,21.13
2018-06-19T07:54:09.611Z,20.93
2018-06-19T07:56:38.618Z,20.95
2018-06-19T07:59:07.433Z,20.92
2018-06-19T08:01:36.257Z,20.70
2018-06-19T08:04:05.307Z,21.00
2018-06-19T08:06:34.451Z,21.23
2018-06-19T08:09:03.646Z,21.22
2018-06-19T08:11:32.487Z,21.38
2018-06-19T08:14:01.773Z,21.50
2018-06-19T08:16:31.253Z,21.46
2018-06-19T08:19:00.440Z,21.50
2018-06-19T08:21:29.294Z,21.51
2018-06-19T08:23:58.239Z,21.51
2018-06-19T08:26:27.177Z,21.61
2018-06-19T08:28:56.321Z,21.61
2018-06-19T08:31:25.363Z,21.76
2018-06-19T08:33:54.305Z,21.59
2018-06-19T08:36:23.185Z,21.43
2018-06-19T08:38:52.079Z,21.59
2018-06-19T08:41:21.542Z,21.68
2018-06-19T08:43:50.520Z,21.78
2018-06-19T08:46:19.287Z,21.89
2018-06-19T08:48:48.401Z,22.03
2018-06-19T08:51:17.165Z,22.30
2018-06-19T08:53:46.538Z,22.55
2018-06-19T08:56:15.370Z,22.29
2018-06-19T08:58:44.297Z,22.52
2018-06-19T09:01:13.175Z,22.26
2018-06-19T09:03:42.266Z,22.01
2018-06-19T09:06:12.041Z,22.00
2018-06-19T09:08:40.973Z,21.86
2018-06-19T09:11:09.963Z,21.77
2018-06-19T09:13:39.557Z,22.04
2018-06-19T09:16:08.567Z,22.22
2018-06-19T09:18:41.287Z,22.26
2018-06-19T09:21:10.472Z,22.42
2018-06-19T09:23:39.340Z,22.05
2018-06-19T09:26:08.613Z,22.16
2018-06-19T09:28:37.538Z,22.20
2018-06-19T09:31:06.752Z,22.16
2018-06-19T09:33:35.821Z,22.13
2018-06-19T09:36:04.709Z,21.92
2018-06-19T09:38:34.024Z,22.33
2018-06-19T09:41:03.030Z,22.32
2018-06-19T09:43:32.043Z,22.43
2018-06-19T09:46:00.728Z,22.74
2018-06-19T09:48:29.520Z,22.67
2018-06-19T09:50:58.454Z,22.78
2018-06-19T09:53:27.316Z,22.71
2018-06-19T09:55:56.190Z,22.90
2018-06-19T09:58:25.430Z,22.91
2018-06-19T10:00:55.022Z,23.07
2018-06-19T10:03:26.047Z,23.22
2018-06-19T10:05:54.899Z,23.09
2018-06-19T10:08:23.738Z,23.32
2018-06-19T10:10:52.570Z,23.25
2018-06-19T10:13:21.562Z,23.39
2018-06-19T10:15:50.532Z,23.22
2018-06-19T10:18:19.927Z,23.50
2018-06-19T10:20:48.893Z,23.36
2018-06-19T10:23:17.657Z,23.23
2018-06-19T10:25:46.689Z,23.51
2018-06-19T10:28:15.512Z,23.49
2018-06-19T10:30:44.656Z,23.48
2018-06-19T10:33:13.745Z,23.76
2018-06-19T10:35:42.819Z,24.01
2018-06-19T10:38:11.740Z,24.35
2018-06-19T10:40:40.607Z,24.37
2018-06-19T10:43:09.908Z,24.36
2018-06-19T10:45:39.013Z,23.90
2018-06-19T10:48:07.987Z,23.92
2018-06-19T10:50:37.014Z,23.68
2018-06-19T10:53:05.975Z,23.66
2018-06-19T10:55:34.907Z,23.62
2018-06-19T10:58:03.812Z,23.94
2018-06-19T11:00:32.750Z,24.14
2018-06-19T11:03:02.631Z,24.30
2018-06-19T11:05:31.815Z,24.35
2018-06-19T11:08:00.860Z,24.37
2018-06-19T11:10:29.849Z,24.50
2018-06-19T11:12:58.723Z,24.52
2018-06-19T11:15:27.749Z,24.18
2018-06-19T11:17:56.950Z,24.48
2018-06-19T11:20:26.542Z,24.30
2018-06-19T11:22:55.506Z,24.13
2018-06-19T11:25:24.609Z,24.27
2018-06-19T11:27:53.471Z,23.98
2018-06-19T11:30:22.298Z,23.92
2018-06-19T11:32:51.361Z,24.17
2018-06-19T11:35:20.539Z,24.05
2018-06-19T11:37:49.673Z,23.87
2018-06-19T11:40:18.397Z,23.94
2018-06-19T11:42:47.287Z,23.78
2018-06-19T11:45:16.221Z,23.96
2018-06-19T11:47:45.475Z,24.12
2018-06-19T11:50:14.777Z,24.19
2018-06-19T11:52:44.283Z,24.64
2018-06-19T11:55:13.130Z,24.95
2018-06-19T11:57:42.752Z,25.16
2018-06-19T12:00:11.562Z,25.11
2018-06-19T12:02:40.783Z,24.74
2018-06-19T12:05:09.764Z,24.77
2018-06-19T12:07:45.126Z,25.26
2018-06-19T12:10:14.016Z,25.18
2018-06-19T12:12:42.752Z,25.14
2018-06-19T12:15:11.646Z,25.51
2018-06-19T12:17:40.610Z,24.53
2018-06-19T12:20:09.894Z,24.98
2018-06-19T12:22:38.774Z,24.89
2018-06-19T12:25:07.609Z,25.15
2018-06-19T12:27:36.608Z,25.28
2018-06-19T12:30:06.786Z,25.74
2018-06-19T12:32:36.157Z,25.81
2018-06-19T12:35:05.115Z,26.40
2018-06-19T12:37:33.964Z,26.37
2018-06-19T12:40:02.894Z,26.80
2018-06-19T12:42:31.952Z,26.03
2018-06-19T12:45:01.171Z,26.14
2018-06-19T12:47:30.373Z,25.63
2018-06-19T12:51:42.050Z,25.71
2018-06-19T12:55:04.757Z,25.59
2018-06-19T12:57:34.404Z,25.15
2018-06-19T13:00:03.546Z,25.11
2018-06-19T13:02:32.379Z,24.92
2018-06-19T13:05:12.096Z,25.31
2018-06-19T13:07:42.971Z,25.15
2018-06-19T13:10:12.903Z,25.08
2018-06-19T13:13:18.425Z,25.17
2018-06-19T13:15:47.441Z,25.06
2018-06-19T13:18:27.469Z,26.44
2018-06-19T13:20:56.476Z,27.63
2018-06-19T13:23:25.443Z,27.12
2018-06-19T13:25:54.599Z,27.08
2018-06-19T13:28:33.134Z,27.25
2018-06-19T13:31:13.156Z,27.52
2018-06-19T13:33:42.169Z,26.84
2018-06-19T13:36:11.135Z,27.84
2018-06-19T13:38:40.414Z,29.06
2018-06-19T13:41:21.646Z,28.74
2018-06-19T13:44:02.773Z,28.97
2018-06-19T13:46:31.997Z,29.20
2018-06-19T13:49:00.882Z,28.25
2018-06-19T13:51:29.882Z,27.65
2018-06-19T13:53:58.642Z,27.64
2018-06-19T13:57:40.072Z,27.14
2018-06-19T14:00:12.189Z,26.59
2018-06-19T14:02:41.117Z,26.71
2018-06-19T14:05:10.726Z,27.03
2018-06-19T14:07:50.675Z,26.75
2018-06-19T14:11:28.905Z,26.13
2018-06-19T14:13:57.985Z,25.87
2018-06-19T14:16:27.066Z,26.48
2018-06-19T14:18:55.875Z,26.34
2018-06-19T14:21:24.752Z,26.51
2018-06-19T14:23:53.915Z,26.63
2018-06-19T14:26:23.041Z,26.67
2018-06-19T14:28:51.889Z,26.41
2018-06-19T14:31:20.657Z,26.65
2018-06-19T14:33:49.480Z,26.64
2018-06-19T14:36:18.375Z,26.15
2018-06-19T14:38:47.077Z,26.40
2018-06-19T14:41:16.038Z,26.33
2018-06-19T14:43:44.892Z,26.69
2018-06-19T14:46:13.686Z,27.05
2018-06-19T14:48:42.691Z,27.40
2018-06-19T14:51:11.854Z,26.88
2018-06-19T14:53:40.885Z,27.08
2018-06-19T14:56:09.715Z,26.98
2018-06-19T14:58:38.614Z,26.64
2018-06-19T15:01:07.438Z,26.75
2018-06-19T15:03:36.536Z,26.81
2018-06-19T15:06:05.489Z,26.89
2018-06-19T15:08:34.434Z,27.06
2018-06-19T15:11:03.935Z,26.46
2018-06-19T15:13:32.795Z,26.47
2018-06-19T15:16:01.619Z,26.51
2018-06-19T15:18:30.837Z,26.46
2018-06-19T15:20:59.809Z,26.66
2018-06-19T15:23:28.803Z,26.94
2018-06-19T15:25:57.688Z,27.17
2018-06-19T15:28:26.667Z,26.98
2018-06-19T15:30:59.143Z,26.67
2018-06-19T15:33:28.187Z,26.78
2018-06-19T15:35:56.985Z,26.79
2018-06-19T15:38:25.970Z,27.16
2018-06-19T15:40:55.232Z,27.12
2018-06-19T15:43:23.964Z,26.66
2018-06-19T15:45:54.579Z,26.41
2018-06-19T15:48:23.620Z,26.57
2018-06-19T15:50:52.562Z,26.45
2018-06-19T15:53:21.410Z,26.27
2018-06-19T15:55:50.422Z,25.82
2018-06-19T15:58:19.217Z,26.18
2018-06-19T16:00:48.643Z,25.89
2018-06-19T16:03:17.622Z,25.63
2018-06-19T16:05:46.480Z,25.77
2018-06-19T16:08:17.881Z,25.96
2018-06-19T16:10:48.289Z,25.88
2018-06-19T16:13:19.280Z,25.67
2018-06-19T16:15:48.007Z,25.81
2018-06-19T16:18:17.094Z,25.89
2018-06-19T16:20:46.021Z,26.06
2018-06-19T16:23:15.048Z,25.98
2018-06-19T16:25:43.966Z,25.77
2018-06-19T16:28:12.876Z,25.52
2018-06-19T16:30:42.169Z,25.48
2018-06-19T16:33:11.004Z,25.65
2018-06-19T16:35:40.098Z,25.55
2018-06-19T16:38:09.106Z,25.73
2018-06-19T16:40:38.309Z,25.43
2018-06-19T16:43:07.291Z,25.39
2018-06-19T16:45:36.422Z,25.54
2018-06-19T16:48:05.739Z,25.44
2018-06-19T16:50:35.002Z,25.46
2018-06-19T16:53:04.004Z,25.37
2018-06-19T16:55:33.116Z,25.48
2018-06-19T16:58:01.836Z,25.50
2018-06-19T17:00:30.671Z,25.38
2018-06-19T17:02:59.586Z,25.30
2018-06-19T17:05:29.164Z,25.27
2018-06-19T17:07:57.916Z,25.14
2018-06-19T17:10:27.050Z,25.12
2018-06-19T17:12:56.042Z,25.01
2018-06-19T17:15:25.210Z,24.95
2018-06-19T17:17:53.970Z,24.96
2018-06-19T17:20:23.157Z,25.04
2018-06-19T17:22:52.223Z,24.94
2018-06-19T17:25:21.194Z,24.90
2018-06-19T17:27:50.018Z,24.86
2018-06-19T17:30:18.903Z,24.83
2018-06-19T17:32:47.729Z,24.88
2018-06-19T17:35:19.425Z,24.88
2018-06-19T17:37:48.404Z,24.88
2018-06-19T17:40:17.638Z,24.78
2018-06-19T17:42:46.657Z,24.86
2018-06-19T17:45:15.869Z,24.80
2018-06-19T17:47:44.973Z,24.86
2018-06-19T17:50:13.944Z,24.89
2018-06-19T17:52:43.778Z,24.80
2018-06-19T17:55:12.541Z,24.85
2018-06-19T17:57:41.859Z,24.88
2018-06-19T18:00:11.116Z,24.85
2018-06-19T18:02:40.291Z,24.74
2018-06-19T18:05:09.380Z,24.76
2018-06-19T18:07:38.251Z,24.68
2018-06-19T18:10:07.274Z,24.75
2018-06-19T18:12:36.131Z,24.65
2018-06-19T18:15:06.452Z,24.46
2018-06-19T18:17:35.352Z,24.38
2018-06-19T18:20:04.533Z,24.56
2018-06-19T18:22:33.702Z,24.50
2018-06-19T18:25:03.088Z,24.49
2018-06-19T18:27:31.849Z,24.50
2018-06-19T18:30:01.041Z,24.42
2018-06-19T18:32:30.028Z,24.44
2018-06-19T18:35:02.970Z,24.38
2018-06-19T18:37:31.967Z,24.32
2018-06-19T18:40:00.822Z,24.31
2018-06-19T18:42:31.911Z,24.25
2018-06-19T18:45:00.972Z,24.22
2018-06-19T18:47:29.939Z,24.16
2018-06-19T18:49:58.867Z,24.13
2018-06-19T18:52:29.793Z,24.12
2018-06-19T18:54:58.910Z,24.11
2018-06-19T18:57:28.073Z,24.06
2018-06-19T18:59:56.865Z,24.01
2018-06-19T19:02:25.894Z,23.97
2018-06-19T19:04:55.052Z,23.85
2018-06-19T19:07:23.933Z,23.83
2018-06-19T19:09:58.123Z,23.75
2018-06-19T19:12:27.069Z,23.76
2018-06-19T19:15:01.391Z,23.74
2018-06-19T19:17:35.631Z,23.69
2018-06-19T19:20:04.943Z,23.71
2018-06-19T19:22:34.177Z,23.55
2018-06-19T19:25:03.510Z,23.52
2018-06-19T19:27:37.661Z,23.49
2018-06-19T19:30:07.165Z,23.48
2018-06-19T19:32:36.005Z,23.45
2018-06-19T19:35:05.885Z,23.42
2018-06-19T19:37:40.243Z,23.38
2018-06-19T19:40:09.104Z,23.38
2018-06-19T19:42:39.274Z,23.35
2018-06-19T19:45:08.787Z,23.36
2018-06-19T19:47:42.999Z,23.32
2018-06-19T19:50:11.945Z,23.48
2018-06-19T19:52:41.842Z,23.34
2018-06-19T19:55:11.173Z,23.29
2018-06-19T19:57:45.382Z,23.32
2018-06-19T20:00:18.479Z,23.23
2018-06-19T20:02:48.279Z,23.18
2018-06-19T20:05:17.347Z,23.16
2018-06-19T20:07:46.160Z,23.18
2018-06-19T20:10:15.832Z,23.18
2018-06-19T20:12:44.795Z,23.15
2018-06-19T20:15:13.549Z,23.14
2018-06-19T20:17:42.442Z,23.15
2018-06-19T20:20:12.475Z,23.14
2018-06-19T20:22:41.766Z,23.14
2018-06-19T20:25:11.193Z,23.11
2018-06-19T20:27:42.660Z,23.02
2018-06-19T20:30:11.722Z,22.95
2018-06-19T20:32:40.536Z,22.94
2018-06-19T20:35:09.481Z,22.91
2018-06-19T20:37:38.494Z,22.86
2018-06-19T20:40:07.745Z,22.82
2018-06-19T20:42:36.831Z,22.86
2018-06-19T20:45:05.686Z,22.80
2018-06-19T20:47:34.614Z,22.79
2018-06-19T20:50:03.450Z,22.75
2018-06-19T20:52:32.411Z,22.69
2018-06-19T20:55:01.398Z,22.69
2018-06-19T20:57:30.551Z,22.69
2018-06-19T20:59:59.634Z,22.71
2018-06-19T21:02:28.426Z,22.64
2018-06-19T21:04:57.434Z,22.59
2018-06-19T21:07:26.308Z,22.52
2018-06-19T21:09:55.225Z,22.51
2018-06-19T21:12:23.961Z,22.46
2018-06-19T21:14:53.108Z,22.47
2018-06-19T21:17:21.994Z,22.45
2018-06-19T21:19:50.951Z,22.43
2018-06-19T21:22:19.724Z,22.42
2018-06-19T21:24:48.793Z,22.36
2018-06-19T21:27:17.769Z,22.28
2018-06-19T21:29:46.613Z,22.25
2018-06-19T21:32:15.840Z,22.24
2018-06-19T21:34:44.614Z,22.19
2018-06-19T21:37:13.922Z,22.12
2018-06-19T21:39:42.895Z,22.11
2018-06-19T21:42:11.845Z,22.06
2018-06-19T21:44:40.667Z,22.03
2018-06-19T21:47:09.622Z,21.97
2018-06-19T21:49:38.415Z,21.92
2018-06-19T21:52:07.881Z,21.86
2018-06-19T21:54:36.741Z,21.82
2018-06-19T21:57:05.819Z,21.75
2018-06-19T21:59:34.683Z,21.74
2018-06-19T22:02:03.800Z,21.72
2018-06-19T22:04:32.523Z,21.69
2018-06-19T22:07:01.588Z,21.60
2018-06-19T22:09:30.312Z,21.55
2018-06-19T22:11:59.194Z,21.51
2018-06-19T22:14:28.026Z,21.44
2018-06-19T22:16:56.918Z,21.43
2018-06-19T22:19:25.688Z,21.38
2018-06-19T22:21:54.720Z,21.35
2018-06-19T22:24:23.665Z,21.30
2018-06-19T22:26:52.545Z,21.26
2018-06-19T22:29:21.665Z,21.21
2018-06-19T22:31:50.615Z,21.18
2018-06-19T22:34:19.462Z,21.15
2018-06-19T22:36:48.437Z,21.08
2018-06-19T22:39:17.395Z,20.99
2018-06-19T22:41:46.106Z,20.93
2018-06-19T22:44:15.243Z,20.83
2018-06-19T22:46:43.989Z,20.78
2018-06-19T22:49:12.846Z,20.68
2018-06-19T22:51:41.714Z,20.57
2018-06-19T22:54:10.456Z,20.51
2018-06-19T22:56:39.543Z,20.47
2018-06-19T22:59:08.942Z,20.44
2018-06-19T23:01:37.897Z,20.41
2018-06-19T23:04:06.709Z,20.40
2018-06-19T23:06:35.699Z,20.39
2018-06-19T23:09:06.603Z,20.36
2018-06-19T23:11:35.661Z,20.34
2018-06-19T23:14:04.800Z,20.30
2018-06-19T23:16:34.045Z,20.28
2018-06-19T23:19:03.262Z,20.25
2018-06-19T23:21:32.094Z,20.22
2018-06-19T23:24:01.259Z,20.16
2018-06-19T23:26:30.271Z,20.12
2018-06-19T23:28:59.450Z,20.05
2018-06-19T23:31:28.719Z,20.05
2018-06-19T23:33:57.852Z,20.01
2018-06-19T23:36:27.017Z,19.97
2018-06-19T23:38:55.835Z,19.94
2018-06-19T23:41:24.928Z,19.96
2018-06-19T23:43:53.987Z,20.00
2018-06-19T23:46:22.868Z,20.04
2018-06-19T23:48:51.771Z,19.96
2018-06-19T23:51:20.649Z,19.88
2018-06-19T23:53:49.451Z,19.82
2018-06-19T23:56:18.169Z,19.75
2018-06-19T23:58:47.114Z,19.70
